sensor_id;sensor_type;location;lat;lon;timestamp;P1;durP1;ratioP1;P2;durP2;ratioP2
25049;SDS011;13046;49.814;9.918;2023-07-02T00:00:19;5.20;;;4.47;;
25049;SDS011;13046;49.814;9.918;2023-07-02T00:02:49;5.07;;;4.57;;
25049;SDS011;13046;49.814;9.918;2023-07-02T00:05:25;5.18;;;4.57;;
25049;SDS011;13046;49.814;9.918;2023-07-02T00:07:54;13.82;;;5.93;;
25049;SDS011;13046;49.814;9.918;2023-07-02T00:10:20;7.20;;;4.53;;
25049;SDS011;13046;49.814;9.918;2023-07-02T00:12:46;8.02;;;4.53;;
25049;SDS011;13046;49.814;9.918;2023-07-02T00:15:12;7.25;;;4.90;;
25049;SDS011;13046;49.814;9.918;2023-07-02T00:17:39;5.15;;;4.72;;
25049;SDS011;13046;49.814;9.918;2023-07-02T00:20:08;5.20;;;4.70;;
25049;SDS011;13046;49.814;9.918;2023-07-02T00:22:41;5.10;;;4.70;;
25049;SDS011;13046;49.814;9.918;2023-07-02T00:25:09;5.22;;;4.82;;
25049;SDS011;13046;49.814;9.918;2023-07-02T00:27:36;4.90;;;4.50;;
25049;SDS011;13046;49.814;9.918;2023-07-02T00:30:03;5.38;;;4.95;;
25049;SDS011;13046;49.814;9.918;2023-07-02T00:32:29;7.03;;;4.20;;
25049;SDS011;13046;49.814;9.918;2023-07-02T00:34:55;5.57;;;4.82;;
25049;SDS011;13046;49.814;9.918;2023-07-02T00:37:21;5.38;;;4.88;;
25049;SDS011;13046;49.814;9.918;2023-07-02T00:39:47;5.43;;;5.03;;
25049;SDS011;13046;49.814;9.918;2023-07-02T00:42:13;5.45;;;4.78;;
25049;SDS011;13046;49.814;9.918;2023-07-02T00:44:39;5.95;;;5.20;;
25049;SDS011;13046;49.814;9.918;2023-07-02T00:47:09;6.97;;;5.45;;
25049;SDS011;13046;49.814;9.918;2023-07-02T00:49:35;5.80;;;5.30;;
25049;SDS011;13046;49.814;9.918;2023-07-02T00:52:01;7.07;;;5.07;;
25049;SDS011;13046;49.814;9.918;2023-07-02T00:54:28;5.15;;;4.65;;
25049;SDS011;13046;49.814;9.918;2023-07-02T00:56:54;9.50;;;7.25;;
25049;SDS011;13046;49.814;9.918;2023-07-02T00:59:20;18.13;;;14.55;;
25049;SDS011;13046;49.814;9.918;2023-07-02T01:01:46;12.60;;;11.25;;
25049;SDS011;13046;49.814;9.918;2023-07-02T01:04:17;6.93;;;6.00;;
25049;SDS011;13046;49.814;9.918;2023-07-02T01:06:44;5.32;;;4.70;;
25049;SDS011;13046;49.814;9.918;2023-07-02T01:09:10;5.78;;;5.22;;
25049;SDS011;13046;49.814;9.918;2023-07-02T01:11:45;6.35;;;5.80;;
25049;SDS011;13046;49.814;9.918;2023-07-02T01:16:39;5.05;;;4.65;;
25049;SDS011;13046;49.814;9.918;2023-07-02T01:19:11;7.88;;;5.10;;
25049;SDS011;13046;49.814;9.918;2023-07-02T01:21:37;8.02;;;5.43;;
25049;SDS011;13046;49.814;9.918;2023-07-02T01:24:03;4.97;;;4.57;;
25049;SDS011;13046;49.814;9.918;2023-07-02T01:26:30;6.22;;;4.50;;
25049;SDS011;13046;49.814;9.918;2023-07-02T01:28:59;6.07;;;5.57;;
25049;SDS011;13046;49.814;9.918;2023-07-02T01:31:26;5.10;;;4.70;;
25049;SDS011;13046;49.814;9.918;2023-07-02T01:33:52;6.18;;;5.68;;
25049;SDS011;13046;49.814;9.918;2023-07-02T01:36:18;6.22;;;5.70;;
25049;SDS011;13046;49.814;9.918;2023-07-02T01:38:44;5.30;;;4.80;;
25049;SDS011;13046;49.814;9.918;2023-07-02T01:41:10;5.75;;;4.85;;
25049;SDS011;13046;49.814;9.918;2023-07-02T01:43:36;5.90;;;4.53;;
25049;SDS011;13046;49.814;9.918;2023-07-02T01:46:02;5.05;;;4.57;;
25049;SDS011;13046;49.814;9.918;2023-07-02T01:48:28;4.65;;;4.25;;
25049;SDS011;13046;49.814;9.918;2023-07-02T01:50:54;6.15;;;4.68;;
25049;SDS011;13046;49.814;9.918;2023-07-02T01:53:21;5.53;;;4.75;;
25049;SDS011;13046;49.814;9.918;2023-07-02T01:55:47;4.85;;;4.45;;
25049;SDS011;13046;49.814;9.918;2023-07-02T01:58:13;4.90;;;4.05;;
25049;SDS011;13046;49.814;9.918;2023-07-02T02:00:39;6.97;;;4.55;;
25049;SDS011;13046;49.814;9.918;2023-07-02T02:03:05;4.60;;;4.20;;
25049;SDS011;13046;49.814;9.918;2023-07-02T02:05:31;4.18;;;3.78;;
25049;SDS011;13046;49.814;9.918;2023-07-02T02:07:57;6.10;;;3.92;;
25049;SDS011;13046;49.814;9.918;2023-07-02T02:10:26;6.38;;;4.10;;
25049;SDS011;13046;49.814;9.918;2023-07-02T02:12:52;4.55;;;3.72;;
25049;SDS011;13046;49.814;9.918;2023-07-02T02:15:19;6.28;;;4.35;;
25049;SDS011;13046;49.814;9.918;2023-07-02T02:17:45;5.65;;;5.20;;
25049;SDS011;13046;49.814;9.918;2023-07-02T02:20:11;5.50;;;3.67;;
25049;SDS011;13046;49.814;9.918;2023-07-02T02:22:37;4.82;;;3.88;;
25049;SDS011;13046;49.814;9.918;2023-07-02T02:25:03;4.65;;;3.72;;
25049;SDS011;13046;49.814;9.918;2023-07-02T02:27:30;7.40;;;3.90;;
25049;SDS011;13046;49.814;9.918;2023-07-02T02:29:56;5.13;;;3.67;;
25049;SDS011;13046;49.814;9.918;2023-07-02T02:32:22;4.25;;;3.80;;
25049;SDS011;13046;49.814;9.918;2023-07-02T02:34:49;7.18;;;4.28;;
25049;SDS011;13046;49.814;9.918;2023-07-02T02:37:16;4.18;;;3.75;;
25049;SDS011;13046;49.814;9.918;2023-07-02T02:39:42;6.75;;;3.47;;
25049;SDS011;13046;49.814;9.918;2023-07-02T02:42:08;4.18;;;3.83;;
25049;SDS011;13046;49.814;9.918;2023-07-02T02:44:34;4.90;;;3.33;;
25049;SDS011;13046;49.814;9.918;2023-07-02T02:47:01;6.15;;;4.00;;
25049;SDS011;13046;49.814;9.918;2023-07-02T02:49:28;6.05;;;3.83;;
25049;SDS011;13046;49.814;9.918;2023-07-02T02:51:54;5.25;;;3.92;;
25049;SDS011;13046;49.814;9.918;2023-07-02T02:54:21;4.53;;;3.70;;
25049;SDS011;13046;49.814;9.918;2023-07-02T02:56:47;5.60;;;4.15;;
25049;SDS011;13046;49.814;9.918;2023-07-02T02:59:13;3.85;;;3.30;;
25049;SDS011;13046;49.814;9.918;2023-07-02T03:01:39;5.22;;;3.78;;
25049;SDS011;13046;49.814;9.918;2023-07-02T03:04:05;4.32;;;3.50;;
25049;SDS011;13046;49.814;9.918;2023-07-02T03:06:33;5.35;;;4.03;;
25049;SDS011;13046;49.814;9.918;2023-07-02T03:08:59;7.25;;;4.22;;
25049;SDS011;13046;49.814;9.918;2023-07-02T03:11:25;4.85;;;4.45;;
25049;SDS011;13046;49.814;9.918;2023-07-02T03:13:51;4.22;;;3.80;;
25049;SDS011;13046;49.814;9.918;2023-07-02T03:16:18;7.25;;;3.70;;
25049;SDS011;13046;49.814;9.918;2023-07-02T03:18:46;6.43;;;4.10;;
25049;SDS011;13046;49.814;9.918;2023-07-02T03:21:12;5.53;;;3.88;;
25049;SDS011;13046;49.814;9.918;2023-07-02T03:23:38;7.38;;;3.75;;
25049;SDS011;13046;49.814;9.918;2023-07-02T03:26:04;5.80;;;3.75;;
25049;SDS011;13046;49.814;9.918;2023-07-02T03:28:30;7.30;;;3.65;;
25049;SDS011;13046;49.814;9.918;2023-07-02T03:30:59;5.70;;;3.78;;
25049;SDS011;13046;49.814;9.918;2023-07-02T03:33:25;8.50;;;5.30;;
25049;SDS011;13046;49.814;9.918;2023-07-02T03:35:51;3.55;;;3.25;;
25049;SDS011;13046;49.814;9.918;2023-07-02T03:38:17;4.10;;;2.97;;
25049;SDS011;13046;49.814;9.918;2023-07-02T03:40:43;7.82;;;3.97;;
25049;SDS011;13046;49.814;9.918;2023-07-02T03:43:09;6.82;;;4.30;;
25049;SDS011;13046;49.814;9.918;2023-07-02T03:45:35;5.28;;;3.90;;
25049;SDS011;13046;49.814;9.918;2023-07-02T03:48:01;8.27;;;4.80;;
25049;SDS011;13046;49.814;9.918;2023-07-02T03:50:27;5.07;;;4.18;;
25049;SDS011;13046;49.814;9.918;2023-07-02T03:52:53;3.78;;;3.47;;
25049;SDS011;13046;49.814;9.918;2023-07-02T03:55:19;7.22;;;4.15;;
25049;SDS011;13046;49.814;9.918;2023-07-02T03:57:45;5.88;;;3.95;;
25049;SDS011;13046;49.814;9.918;2023-07-02T04:00:12;5.80;;;3.85;;
25049;SDS011;13046;49.814;9.918;2023-07-02T04:02:40;5.43;;;3.70;;
25049;SDS011;13046;49.814;9.918;2023-07-02T04:05:06;3.80;;;3.45;;
25049;SDS011;13046;49.814;9.918;2023-07-02T04:07:32;5.43;;;4.50;;
25049;SDS011;13046;49.814;9.918;2023-07-02T04:09:58;7.57;;;4.20;;
25049;SDS011;13046;49.814;9.918;2023-07-02T04:12:25;4.97;;;4.45;;
25049;SDS011;13046;49.814;9.918;2023-07-02T04:14:51;5.13;;;3.92;;
25049;SDS011;13046;49.814;9.918;2023-07-02T04:17:17;5.13;;;4.00;;
25049;SDS011;13046;49.814;9.918;2023-07-02T04:19:43;4.78;;;3.78;;
25049;SDS011;13046;49.814;9.918;2023-07-02T04:22:10;4.57;;;4.00;;
25049;SDS011;13046;49.814;9.918;2023-07-02T04:24:36;5.40;;;4.32;;
25049;SDS011;13046;49.814;9.918;2023-07-02T04:27:02;5.47;;;3.95;;
25049;SDS011;13046;49.814;9.918;2023-07-02T04:29:28;5.38;;;4.10;;
25049;SDS011;13046;49.814;9.918;2023-07-02T04:31:54;3.92;;;3.47;;
25049;SDS011;13046;49.814;9.918;2023-07-02T04:34:20;6.93;;;3.97;;
25049;SDS011;13046;49.814;9.918;2023-07-02T04:36:47;4.30;;;3.60;;
25049;SDS011;13046;49.814;9.918;2023-07-02T04:39:13;4.35;;;3.80;;
25049;SDS011;13046;49.814;9.918;2023-07-02T04:41:39;7.32;;;4.43;;
25049;SDS011;13046;49.814;9.918;2023-07-02T04:44:05;5.45;;;3.92;;
25049;SDS011;13046;49.814;9.918;2023-07-02T04:46:31;7.25;;;4.28;;
25049;SDS011;13046;49.814;9.918;2023-07-02T04:48:57;7.25;;;4.70;;
25049;SDS011;13046;49.814;9.918;2023-07-02T04:51:23;8.30;;;5.82;;
25049;SDS011;13046;49.814;9.918;2023-07-02T04:53:49;6.97;;;4.78;;
25049;SDS011;13046;49.814;9.918;2023-07-02T04:56:15;8.00;;;5.30;;
25049;SDS011;13046;49.814;9.918;2023-07-02T04:58:42;7.38;;;4.88;;
25049;SDS011;13046;49.814;9.918;2023-07-02T05:01:08;7.80;;;5.18;;
25049;SDS011;13046;49.814;9.918;2023-07-02T05:03:34;9.52;;;5.22;;
25049;SDS011;13046;49.814;9.918;2023-07-02T05:06:00;11.93;;;6.43;;
25049;SDS011;13046;49.814;9.918;2023-07-02T05:08:26;6.47;;;5.72;;
25049;SDS011;13046;49.814;9.918;2023-07-02T05:10:52;10.48;;;6.53;;
25049;SDS011;13046;49.814;9.918;2023-07-02T05:13:18;9.00;;;6.15;;
25049;SDS011;13046;49.814;9.918;2023-07-02T05:15:44;8.98;;;5.88;;
25049;SDS011;13046;49.814;9.918;2023-07-02T05:18:11;12.88;;;6.80;;
25049;SDS011;13046;49.814;9.918;2023-07-02T05:20:37;10.25;;;6.60;;
25049;SDS011;13046;49.814;9.918;2023-07-02T05:23:03;10.15;;;5.97;;
25049;SDS011;13046;49.814;9.918;2023-07-02T05:25:29;15.02;;;8.68;;
25049;SDS011;13046;49.814;9.918;2023-07-02T05:27:55;11.82;;;7.45;;
25049;SDS011;13046;49.814;9.918;2023-07-02T05:30:21;12.10;;;6.82;;
25049;SDS011;13046;49.814;9.918;2023-07-02T05:32:47;8.77;;;6.25;;
25049;SDS011;13046;49.814;9.918;2023-07-02T05:35:13;11.25;;;7.68;;
25049;SDS011;13046;49.814;9.918;2023-07-02T05:37:39;14.70;;;8.48;;
25049;SDS011;13046;49.814;9.918;2023-07-02T05:40:05;13.10;;;8.38;;
25049;SDS011;13046;49.814;9.918;2023-07-02T05:42:41;15.00;;;9.55;;
25049;SDS011;13046;49.814;9.918;2023-07-02T05:45:08;10.85;;;7.15;;
25049;SDS011;13046;49.814;9.918;2023-07-02T05:47:34;15.50;;;8.40;;
25049;SDS011;13046;49.814;9.918;2023-07-02T05:50:00;12.95;;;9.02;;
25049;SDS011;13046;49.814;9.918;2023-07-02T05:52:26;13.07;;;8.63;;
25049;SDS011;13046;49.814;9.918;2023-07-02T05:54:52;15.77;;;8.88;;
25049;SDS011;13046;49.814;9.918;2023-07-02T05:57:18;11.10;;;7.15;;
25049;SDS011;13046;49.814;9.918;2023-07-02T05:59:46;15.38;;;9.25;;
25049;SDS011;13046;49.814;9.918;2023-07-02T06:02:12;15.00;;;7.85;;
25049;SDS011;13046;49.814;9.918;2023-07-02T06:04:38;16.27;;;8.63;;
25049;SDS011;13046;49.814;9.918;2023-07-02T06:07:04;13.25;;;8.05;;
25049;SDS011;13046;49.814;9.918;2023-07-02T06:09:30;14.73;;;8.77;;
25049;SDS011;13046;49.814;9.918;2023-07-02T06:11:57;23.17;;;10.80;;
25049;SDS011;13046;49.814;9.918;2023-07-02T06:14:24;14.45;;;8.82;;
25049;SDS011;13046;49.814;9.918;2023-07-02T06:16:51;14.38;;;8.30;;
25049;SDS011;13046;49.814;9.918;2023-07-02T06:19:17;11.55;;;8.02;;
25049;SDS011;13046;49.814;9.918;2023-07-02T06:21:43;12.50;;;7.85;;
25049;SDS011;13046;49.814;9.918;2023-07-02T06:24:09;12.32;;;7.65;;
25049;SDS011;13046;49.814;9.918;2023-07-02T06:26:35;11.82;;;8.25;;
25049;SDS011;13046;49.814;9.918;2023-07-02T06:29:01;13.38;;;8.38;;
25049;SDS011;13046;49.814;9.918;2023-07-02T06:31:27;14.18;;;9.27;;
25049;SDS011;13046;49.814;9.918;2023-07-02T06:33:53;14.05;;;8.70;;
25049;SDS011;13046;49.814;9.918;2023-07-02T06:36:20;17.80;;;10.18;;
25049;SDS011;13046;49.814;9.918;2023-07-02T06:38:46;23.17;;;11.02;;
25049;SDS011;13046;49.814;9.918;2023-07-02T06:41:12;11.40;;;8.20;;
25049;SDS011;13046;49.814;9.918;2023-07-02T06:43:38;16.33;;;9.63;;
25049;SDS011;13046;49.814;9.918;2023-07-02T06:46:04;15.95;;;9.07;;
25049;SDS011;13046;49.814;9.918;2023-07-02T06:48:30;16.00;;;11.20;;
25049;SDS011;13046;49.814;9.918;2023-07-02T06:50:56;14.95;;;9.63;;
25049;SDS011;13046;49.814;9.918;2023-07-02T06:53:22;13.70;;;9.93;;
25049;SDS011;13046;49.814;9.918;2023-07-02T06:55:48;18.10;;;11.32;;
25049;SDS011;13046;49.814;9.918;2023-07-02T06:58:14;15.13;;;10.05;;
25049;SDS011;13046;49.814;9.918;2023-07-02T07:00:40;28.02;;;10.07;;
25049;SDS011;13046;49.814;9.918;2023-07-02T07:03:06;26.92;;;12.45;;
25049;SDS011;13046;49.814;9.918;2023-07-02T07:05:32;12.82;;;9.65;;
25049;SDS011;13046;49.814;9.918;2023-07-02T07:08:00;12.68;;;9.43;;
25049;SDS011;13046;49.814;9.918;2023-07-02T07:10:26;13.07;;;9.40;;
25049;SDS011;13046;49.814;9.918;2023-07-02T07:12:52;23.75;;;9.48;;
25049;SDS011;13046;49.814;9.918;2023-07-02T07:15:19;17.50;;;9.45;;
25049;SDS011;13046;49.814;9.918;2023-07-02T07:17:45;11.38;;;8.48;;
25049;SDS011;13046;49.814;9.918;2023-07-02T07:20:11;15.18;;;9.95;;
25049;SDS011;13046;49.814;9.918;2023-07-02T07:22:40;12.38;;;9.63;;
25049;SDS011;13046;49.814;9.918;2023-07-02T07:25:07;15.85;;;9.30;;
25049;SDS011;13046;49.814;9.918;2023-07-02T07:27:33;13.57;;;10.68;;
25049;SDS011;13046;49.814;9.918;2023-07-02T07:29:59;16.40;;;10.57;;
25049;SDS011;13046;49.814;9.918;2023-07-02T07:32:25;13.05;;;9.73;;
25049;SDS011;13046;49.814;9.918;2023-07-02T07:34:51;15.30;;;10.27;;
25049;SDS011;13046;49.814;9.918;2023-07-02T07:37:17;13.55;;;9.85;;
25049;SDS011;13046;49.814;9.918;2023-07-02T07:39:43;14.23;;;9.88;;
25049;SDS011;13046;49.814;9.918;2023-07-02T07:42:09;15.48;;;10.07;;
25049;SDS011;13046;49.814;9.918;2023-07-02T07:44:35;14.40;;;10.55;;
25049;SDS011;13046;49.814;9.918;2023-07-02T07:47:01;15.57;;;10.70;;
25049;SDS011;13046;49.814;9.918;2023-07-02T07:49:27;14.52;;;9.95;;
25049;SDS011;13046;49.814;9.918;2023-07-02T07:51:53;12.80;;;9.77;;
25049;SDS011;13046;49.814;9.918;2023-07-02T07:54:19;15.02;;;10.32;;
25049;SDS011;13046;49.814;9.918;2023-07-02T07:56:45;15.48;;;10.27;;
25049;SDS011;13046;49.814;9.918;2023-07-02T07:59:11;16.80;;;11.77;;
25049;SDS011;13046;49.814;9.918;2023-07-02T08:01:39;14.18;;;9.80;;
25049;SDS011;13046;49.814;9.918;2023-07-02T08:04:06;14.25;;;10.40;;
25049;SDS011;13046;49.814;9.918;2023-07-02T08:06:32;17.33;;;9.65;;
25049;SDS011;13046;49.814;9.918;2023-07-02T08:08:58;15.80;;;10.80;;
25049;SDS011;13046;49.814;9.918;2023-07-02T08:11:24;16.00;;;11.30;;
25049;SDS011;13046;49.814;9.918;2023-07-02T08:13:50;17.20;;;10.63;;
25049;SDS011;13046;49.814;9.918;2023-07-02T08:16:16;16.90;;;10.57;;
25049;SDS011;13046;49.814;9.918;2023-07-02T08:18:42;10.95;;;9.85;;
25049;SDS011;13046;49.814;9.918;2023-07-02T08:21:08;20.85;;;10.32;;
25049;SDS011;13046;49.814;9.918;2023-07-02T08:23:36;15.27;;;10.10;;
25049;SDS011;13046;49.814;9.918;2023-07-02T08:26:02;15.05;;;10.18;;
25049;SDS011;13046;49.814;9.918;2023-07-02T08:28:28;14.85;;;9.85;;
25049;SDS011;13046;49.814;9.918;2023-07-02T08:30:54;17.08;;;12.23;;
25049;SDS011;13046;49.814;9.918;2023-07-02T08:33:20;16.42;;;11.35;;
25049;SDS011;13046;49.814;9.918;2023-07-02T08:35:47;18.88;;;11.95;;
25049;SDS011;13046;49.814;9.918;2023-07-02T08:38:13;15.75;;;10.18;;
25049;SDS011;13046;49.814;9.918;2023-07-02T08:40:40;15.63;;;12.48;;
25049;SDS011;13046;49.814;9.918;2023-07-02T08:43:15;15.05;;;12.73;;
25049;SDS011;13046;49.814;9.918;2023-07-02T08:45:41;16.20;;;11.15;;
25049;SDS011;13046;49.814;9.918;2023-07-02T08:48:08;13.68;;;10.52;;
25049;SDS011;13046;49.814;9.918;2023-07-02T08:50:34;17.10;;;11.45;;
25049;SDS011;13046;49.814;9.918;2023-07-02T08:53:00;15.70;;;10.52;;
25049;SDS011;13046;49.814;9.918;2023-07-02T08:55:26;22.63;;;11.50;;
25049;SDS011;13046;49.814;9.918;2023-07-02T08:57:55;30.00;;;13.30;;
25049;SDS011;13046;49.814;9.918;2023-07-02T09:00:26;15.75;;;10.68;;
25049;SDS011;13046;49.814;9.918;2023-07-02T09:02:52;15.75;;;10.95;;
25049;SDS011;13046;49.814;9.918;2023-07-02T09:05:18;16.90;;;11.90;;
25049;SDS011;13046;49.814;9.918;2023-07-02T09:07:44;12.95;;;10.40;;
25049;SDS011;13046;49.814;9.918;2023-07-02T09:10:11;14.35;;;10.40;;
25049;SDS011;13046;49.814;9.918;2023-07-02T09:12:37;15.27;;;10.43;;
25049;SDS011;13046;49.814;9.918;2023-07-02T09:15:05;14.07;;;9.52;;
25049;SDS011;13046;49.814;9.918;2023-07-02T09:17:32;14.35;;;9.55;;
25049;SDS011;13046;49.814;9.918;2023-07-02T09:19:58;14.40;;;10.30;;
25049;SDS011;13046;49.814;9.918;2023-07-02T09:22:25;14.23;;;9.75;;
25049;SDS011;13046;49.814;9.918;2023-07-02T09:24:56;15.45;;;9.82;;
25049;SDS011;13046;49.814;9.918;2023-07-02T09:32:34;12.05;;;8.95;;
25049;SDS011;13046;49.814;9.918;2023-07-02T09:35:00;12.27;;;9.40;;
25049;SDS011;13046;49.814;9.918;2023-07-02T09:37:26;14.57;;;9.50;;
25049;SDS011;13046;49.814;9.918;2023-07-02T09:39:52;12.05;;;9.00;;
25049;SDS011;13046;49.814;9.918;2023-07-02T09:42:19;17.90;;;10.75;;
25049;SDS011;13046;49.814;9.918;2023-07-02T09:44:46;11.70;;;9.20;;
25049;SDS011;13046;49.814;9.918;2023-07-02T09:47:12;12.23;;;9.25;;
25049;SDS011;13046;49.814;9.918;2023-07-02T09:49:40;17.23;;;10.07;;
25049;SDS011;13046;49.814;9.918;2023-07-02T09:52:08;10.68;;;9.32;;
25049;SDS011;13046;49.814;9.918;2023-07-02T09:54:34;12.27;;;9.52;;
25049;SDS011;13046;49.814;9.918;2023-07-02T09:57:01;13.40;;;9.98;;
25049;SDS011;13046;49.814;9.918;2023-07-02T09:59:27;13.30;;;9.60;;
25049;SDS011;13046;49.814;9.918;2023-07-02T10:01:53;16.05;;;9.50;;
25049;SDS011;13046;49.814;9.918;2023-07-02T10:04:20;13.40;;;9.43;;
25049;SDS011;13046;49.814;9.918;2023-07-02T10:06:49;15.18;;;9.43;;
25049;SDS011;13046;49.814;9.918;2023-07-02T10:09:19;11.80;;;8.30;;
25049;SDS011;13046;49.814;9.918;2023-07-02T10:11:45;10.63;;;8.23;;
25049;SDS011;13046;49.814;9.918;2023-07-02T10:14:11;11.23;;;8.55;;
25049;SDS011;13046;49.814;9.918;2023-07-02T10:16:53;11.77;;;8.52;;
25049;SDS011;13046;49.814;9.918;2023-07-02T10:19:19;15.10;;;10.02;;
25049;SDS011;13046;49.814;9.918;2023-07-02T10:21:45;12.38;;;9.52;;
25049;SDS011;13046;49.814;9.918;2023-07-02T10:24:12;9.57;;;7.55;;
25049;SDS011;13046;49.814;9.918;2023-07-02T10:26:39;10.90;;;8.38;;
25049;SDS011;13046;49.814;9.918;2023-07-02T10:29:05;11.55;;;8.73;;
25049;SDS011;13046;49.814;9.918;2023-07-02T10:31:32;8.73;;;7.43;;
25049;SDS011;13046;49.814;9.918;2023-07-02T10:33:58;14.05;;;8.90;;
25049;SDS011;13046;49.814;9.918;2023-07-02T10:36:24;10.75;;;8.18;;
25049;SDS011;13046;49.814;9.918;2023-07-02T10:38:51;13.25;;;9.68;;
25049;SDS011;13046;49.814;9.918;2023-07-02T10:41:27;14.18;;;8.68;;
25049;SDS011;13046;49.814;9.918;2023-07-02T10:43:53;11.10;;;8.45;;
25049;SDS011;13046;49.814;9.918;2023-07-02T10:46:20;11.77;;;8.95;;
25049;SDS011;13046;49.814;9.918;2023-07-02T10:48:53;10.35;;;7.55;;
25049;SDS011;13046;49.814;9.918;2023-07-02T10:51:20;12.18;;;7.85;;
25049;SDS011;13046;49.814;9.918;2023-07-02T10:53:55;11.63;;;8.00;;
25049;SDS011;13046;49.814;9.918;2023-07-02T10:56:22;11.32;;;8.88;;
25049;SDS011;13046;49.814;9.918;2023-07-02T10:58:48;11.35;;;8.82;;
25049;SDS011;13046;49.814;9.918;2023-07-02T11:01:30;15.32;;;9.45;;
25049;SDS011;13046;49.814;9.918;2023-07-02T11:06:23;11.88;;;9.10;;
25049;SDS011;13046;49.814;9.918;2023-07-02T11:08:49;12.20;;;8.80;;
25049;SDS011;13046;49.814;9.918;2023-07-02T11:11:15;11.90;;;9.90;;
25049;SDS011;13046;49.814;9.918;2023-07-02T11:13:47;12.63;;;9.35;;
25049;SDS011;13046;49.814;9.918;2023-07-02T11:16:20;11.70;;;9.20;;
25049;SDS011;13046;49.814;9.918;2023-07-02T11:18:48;13.73;;;9.43;;
25049;SDS011;13046;49.814;9.918;2023-07-02T11:21:14;15.02;;;12.10;;
25049;SDS011;13046;49.814;9.918;2023-07-02T11:23:42;11.98;;;9.15;;
25049;SDS011;13046;49.814;9.918;2023-07-02T11:26:08;15.25;;;9.63;;
25049;SDS011;13046;49.814;9.918;2023-07-02T11:28:35;13.18;;;9.73;;
25049;SDS011;13046;49.814;9.918;2023-07-02T11:31:01;12.98;;;9.20;;
25049;SDS011;13046;49.814;9.918;2023-07-02T11:33:46;15.80;;;10.55;;
25049;SDS011;13046;49.814;9.918;2023-07-02T11:36:19;13.40;;;10.80;;
25049;SDS011;13046;49.814;9.918;2023-07-02T11:38:45;32.65;;;13.65;;
25049;SDS011;13046;49.814;9.918;2023-07-02T11:41:11;14.93;;;10.90;;
25049;SDS011;13046;49.814;9.918;2023-07-02T11:43:38;18.63;;;12.35;;
25049;SDS011;13046;49.814;9.918;2023-07-02T11:46:04;13.73;;;11.00;;
25049;SDS011;13046;49.814;9.918;2023-07-02T11:48:30;15.48;;;10.65;;
25049;SDS011;13046;49.814;9.918;2023-07-02T11:50:56;15.65;;;10.63;;
25049;SDS011;13046;49.814;9.918;2023-07-02T11:53:22;14.57;;;11.18;;
25049;SDS011;13046;49.814;9.918;2023-07-02T11:55:48;18.20;;;12.80;;
25049;SDS011;13046;49.814;9.918;2023-07-02T11:58:14;22.67;;;13.07;;
25049;SDS011;13046;49.814;9.918;2023-07-02T12:00:40;16.08;;;12.25;;
25049;SDS011;13046;49.814;9.918;2023-07-02T12:03:06;17.98;;;12.35;;
25049;SDS011;13046;49.814;9.918;2023-07-02T12:05:32;17.70;;;11.45;;
25049;SDS011;13046;49.814;9.918;2023-07-02T12:07:58;16.58;;;12.25;;
25049;SDS011;13046;49.814;9.918;2023-07-02T12:10:24;16.02;;;10.85;;
25049;SDS011;13046;49.814;9.918;2023-07-02T12:12:50;15.05;;;11.85;;
25049;SDS011;13046;49.814;9.918;2023-07-02T12:15:16;16.55;;;10.88;;
25049;SDS011;13046;49.814;9.918;2023-07-02T12:17:42;14.85;;;10.95;;
25049;SDS011;13046;49.814;9.918;2023-07-02T12:20:08;17.10;;;11.77;;
25049;SDS011;13046;49.814;9.918;2023-07-02T12:22:34;14.35;;;11.35;;
25049;SDS011;13046;49.814;9.918;2023-07-02T12:25:01;16.17;;;11.93;;
25049;SDS011;13046;49.814;9.918;2023-07-02T12:27:27;15.50;;;10.43;;
25049;SDS011;13046;49.814;9.918;2023-07-02T12:29:53;13.93;;;10.52;;
25049;SDS011;13046;49.814;9.918;2023-07-02T12:32:20;13.52;;;10.70;;
25049;SDS011;13046;49.814;9.918;2023-07-02T12:34:46;13.23;;;11.55;;
25049;SDS011;13046;49.814;9.918;2023-07-02T12:37:12;15.00;;;11.50;;
25049;SDS011;13046;49.814;9.918;2023-07-02T12:39:42;11.63;;;10.15;;
25049;SDS011;13046;49.814;9.918;2023-07-02T12:42:08;13.73;;;11.05;;
25049;SDS011;13046;49.814;9.918;2023-07-02T12:44:35;12.93;;;10.73;;
25049;SDS011;13046;49.814;9.918;2023-07-02T12:47:01;14.15;;;10.98;;
25049;SDS011;13046;49.814;9.918;2023-07-02T12:49:28;14.10;;;11.10;;
25049;SDS011;13046;49.814;9.918;2023-07-02T12:51:54;15.60;;;12.15;;
25049;SDS011;13046;49.814;9.918;2023-07-02T12:54:20;19.48;;;11.98;;
25049;SDS011;13046;49.814;9.918;2023-07-02T12:56:46;16.17;;;11.27;;
25049;SDS011;13046;49.814;9.918;2023-07-02T12:59:13;15.48;;;12.98;;
25049;SDS011;13046;49.814;9.918;2023-07-02T13:01:40;14.90;;;11.27;;
25049;SDS011;13046;49.814;9.918;2023-07-02T13:04:06;18.13;;;12.40;;
25049;SDS011;13046;49.814;9.918;2023-07-02T13:06:32;17.65;;;10.70;;
25049;SDS011;13046;49.814;9.918;2023-07-02T13:09:05;16.40;;;11.83;;
25049;SDS011;13046;49.814;9.918;2023-07-02T13:11:31;17.02;;;12.80;;
25049;SDS011;13046;49.814;9.918;2023-07-02T13:13:58;16.40;;;12.68;;
25049;SDS011;13046;49.814;9.918;2023-07-02T13:16:24;18.20;;;12.35;;
25049;SDS011;13046;49.814;9.918;2023-07-02T13:18:50;17.83;;;12.40;;
25049;SDS011;13046;49.814;9.918;2023-07-02T13:21:16;17.60;;;13.80;;
25049;SDS011;13046;49.814;9.918;2023-07-02T13:23:42;16.50;;;12.32;;
25049;SDS011;13046;49.814;9.918;2023-07-02T13:26:08;21.40;;;15.05;;
25049;SDS011;13046;49.814;9.918;2023-07-02T13:28:35;16.35;;;13.07;;
25049;SDS011;13046;49.814;9.918;2023-07-02T13:31:01;15.88;;;13.55;;
25049;SDS011;13046;49.814;9.918;2023-07-02T13:33:27;16.10;;;14.10;;
25049;SDS011;13046;49.814;9.918;2023-07-02T13:35:54;18.70;;;15.32;;
25049;SDS011;13046;49.814;9.918;2023-07-02T13:38:20;18.35;;;14.45;;
25049;SDS011;13046;49.814;9.918;2023-07-02T13:40:46;19.48;;;14.43;;
25049;SDS011;13046;49.814;9.918;2023-07-02T13:43:12;20.38;;;15.30;;
25049;SDS011;13046;49.814;9.918;2023-07-02T13:45:38;17.95;;;15.40;;
25049;SDS011;13046;49.814;9.918;2023-07-02T13:48:04;24.05;;;13.52;;
25049;SDS011;13046;49.814;9.918;2023-07-02T13:50:31;19.70;;;14.52;;
25049;SDS011;13046;49.814;9.918;2023-07-02T13:52:57;18.80;;;15.13;;
25049;SDS011;13046;49.814;9.918;2023-07-02T13:55:23;23.40;;;15.45;;
25049;SDS011;13046;49.814;9.918;2023-07-02T13:57:53;20.17;;;15.13;;
25049;SDS011;13046;49.814;9.918;2023-07-02T14:00:20;17.90;;;14.68;;
25049;SDS011;13046;49.814;9.918;2023-07-02T14:02:47;23.70;;;16.65;;
25049;SDS011;13046;49.814;9.918;2023-07-02T14:05:13;19.92;;;14.75;;
25049;SDS011;13046;49.814;9.918;2023-07-02T14:07:39;19.30;;;16.05;;
25049;SDS011;13046;49.814;9.918;2023-07-02T14:10:05;24.05;;;16.70;;
25049;SDS011;13046;49.814;9.918;2023-07-02T14:12:31;23.40;;;16.88;;
25049;SDS011;13046;49.814;9.918;2023-07-02T14:14:57;19.45;;;15.55;;
25049;SDS011;13046;49.814;9.918;2023-07-02T14:17:23;20.80;;;15.82;;
25049;SDS011;13046;49.814;9.918;2023-07-02T14:19:49;19.50;;;15.75;;
25049;SDS011;13046;49.814;9.918;2023-07-02T14:22:15;25.73;;;16.42;;
25049;SDS011;13046;49.814;9.918;2023-07-02T14:24:41;20.52;;;16.15;;
25049;SDS011;13046;49.814;9.918;2023-07-02T14:27:08;21.38;;;15.80;;
25049;SDS011;13046;49.814;9.918;2023-07-02T14:29:34;24.13;;;16.92;;
25049;SDS011;13046;49.814;9.918;2023-07-02T14:32:00;16.63;;;14.82;;
25049;SDS011;13046;49.814;9.918;2023-07-02T14:34:26;20.20;;;15.38;;
25049;SDS011;13046;49.814;9.918;2023-07-02T14:36:52;25.15;;;16.65;;
25049;SDS011;13046;49.814;9.918;2023-07-02T14:39:19;21.05;;;15.27;;